Terminal Aerodrome Forecast
Issued by NWS Burlington, VT

Current Version | Previous Version | Text Only | Print | Product List | Glossary On
Versions: 1 2 3 4 5 6 7 8 9 10 11 12 13
890 FTUS41 KBTV 222339 AAC TAFBTV TAF AMD KBTV 222339Z 2300/2324 VRB03KT P6SM FEW150 SCT200 FM230300 18004KT P6SM OVC040 FM231300 19012G20KT P6SM OVC035 FM232100 20012G20KT P6SM VCSH OVC035=

USA.gov is the U.S. government's official web portal to all federal, state and local government web resources and services.